Airfield :
LOGIN :

Register | Disclaimer

   EN    FR    IT 

 










Legend :    VFR   Marginal VFR   IFR   Intensive IFR   Very Intensive IFR
Visi :
Ceiling :
>= 8 km
>= 3000ft
5 to 8 km
1000 to 3000 ft
1500m to 5 km
500 to 1000 ft
800 to 1500m
200 to 500 ft
< 800m
< 200 ft
Symbols :   Thunderstorms  Fog  Heavy snow  Heavy precipitations  Wind > 20 kt
SIGMETs :     Misc.  Thunderstorms  Icing  Turbulence  Mountain Waves  Volcanic Ashes







- Airport Elevation : 142 ft
- IATA code : ALC


LEAL - Alicante

CURRENT METAR :
  • 152230Z 00000KT 8000 FEW024 23/22 Q1018 NOSIG

EXPIRED METARs :
  • 152200Z 00000KT 9999 FEW045 23/22 Q1018 NOSIG
  • 152130Z 34002KT 9999 FEW045 24/22 Q1018 NOSIG
  • 152100Z 07006KT 9999 FEW048 24/22 Q1018 NOSIG
  • 152030Z 09007KT 9999 FEW048 24/22 Q1018 NOSIG
  • 152000Z 07010KT 9999 FEW048 24/22 Q1018 NOSIG

TAF TAF LEAL
Valid from the 15 at 18:00 until the 16 at 18:00 UTC


151700Z 1518/1618 06010KT 9999 FEW040 TX27/1612Z TN20/1606Z
BECMG 1520/1523 27004KT
BECMG 1609/1611 14010KT
No reported NOTAMs for that airfield.



MET'MAP, your aeronautical weather chart ! - Copyright ORBIFLY December 2007 - Disclaimer

ORBIFLY MET'MAP TEAM :

Programming & Development : Alexandra Zaïnal
Concept & Development : Baudouin d'Aumeries
Co-Development & Prog : Marc-Olivier Méhu
Technical & hardware support : Manuel Goepfert

Contact : metmap@orbifly.com




SOURCES & CREDITS :

   NOAA